Thalia — FPCS — position and weather

sailwx.info

Track history (hours):
 
Tides and Currents Weather Stations Pressure Air Temp Water Temp Dewpoint Dewpoint Depression Visibility Wind Speed Wind Dir Waves Ship Positions

Oceanographic research ship Thalia (France)

Detailed information on ship capabilities available from University of Delaware's Ocean Information Center.

Last reported at 2019-Aug-24 21:28 UTC. Time now 2019-Aug-24 21:55 UTC.
Position N 46°15' W 001°25'.

Length 25 m; beam 7 m.

Type: Fishing. MMSI: 227270000.

Date/timePositionNaut miles runAvg speedWind from/ knotsBaromVisibWave heightAir tempDewpointWater temp
2019-Aug-24 21:28N 46°15' W 001°25'0 0.0
2019-Aug-24 20:58N 46°15' W 001°25'0 0.0
2019-Aug-24 20:28N 46°15' W 001°25'0 0.0
2019-Aug-24 19:58N 46°15' W 001°25'0 0.0
2019-Aug-24 19:28N 46°15' W 001°25'0 0.0
2019-Aug-24 18:58N 46°15' W 001°25'0 0.0
2019-Aug-24 18:28N 46°15' W 001°25'0 0.0
2019-Aug-24 17:58N 46°15' W 001°25'0 0.0
2019-Aug-24 17:28N 46°15' W 001°25'0 0.0
2019-Aug-24 16:58N 46°15' W 001°25'0 0.0
2019-Aug-24 16:28N 46°15' W 001°25'0 0.1
2019-Aug-24 16:00N 46°15' W 001°25'2 3.5
2019-Aug-24 15:30N 46°16' W 001°27'2 3.9
2019-Aug-24 15:00N 46°17' W 001°27'1 1.8
2019-Aug-24 14:30N 46°18' W 001°28'0 0.3
2019-Aug-24 14:00N 46°18' W 001°28'1 1.7
2019-Aug-24 13:30N 46°17' W 001°29'1 1.1
2019-Aug-24 13:01N 46°18' W 001°30'1 1.5
2019-Aug-24 12:30N 46°17' W 001°30'1 2.2
2019-Aug-24 12:00N 46°18' W 001°32'4 7.8
2019-Aug-24 11:30N 46°19' W 001°26'0 0.4
2019-Aug-24 11:00N 46°19' W 001°26'1 1.5
2019-Aug-24 10:30N 46°18' W 001°26'2 3.1
2019-Aug-24 10:00N 46°18' W 001°24'1 2.1
2019-Aug-24 09:30N 46°17' W 001°23'1 2.5
2019-Aug-24 09:00N 46°17' W 001°22'1 2.4
2019-Aug-24 08:30N 46°17' W 001°23'2 3.6
2019-Aug-24 08:00N 46°15' W 001°21'1 1.3
2019-Aug-24 07:30N 46°15' W 001°22'1 1.6
2019-Aug-24 07:00N 46°15' W 001°21'1 2.4
2019-Aug-24 06:30N 46°13' W 001°21'4 7.3
2019-Aug-24 06:00N 46°12' W 001°16'3 5.9
2019-Aug-24 05:28N 46°09' W 001°13'0 0.0
2019-Aug-24 04:58N 46°09' W 001°13'0 0.0
2019-Aug-24 04:28N 46°09' W 001°13'0 0.0
2019-Aug-24 03:58N 46°09' W 001°13'0 0.0
2019-Aug-24 03:28N 46°09' W 001°13'0 0.0
2019-Aug-24 02:58N 46°09' W 001°13'0 0.0
2019-Aug-24 02:28N 46°09' W 001°13'0 0.0
2019-Aug-24 01:58N 46°09' W 001°13'0 0.0
2019-Aug-24 01:28N 46°09' W 001°13'0 0.0
2019-Aug-24 00:58N 46°09' W 001°13'0 0.0
2019-Aug-24 00:28N 46°09' W 001°13'0 0.0
2019-Aug-23 23:58N 46°09' W 001°13'0 0.0
2019-Aug-23 23:28N 46°09' W 001°13'0 0.0
2019-Aug-23 22:58N 46°09' W 001°13'0 0.0
2019-Aug-23 22:28N 46°09' W 001°13'0 0.0
2019-Aug-23 21:58N 46°09' W 001°13'0 0.0
2019-Aug-23 21:28N 46°09' W 001°13'0 0.0
2019-Aug-23 20:58N 46°09' W 001°13'0 0.0
2019-Aug-23 20:28N 46°09' W 001°13'0 0.0
2019-Aug-23 19:55N 46°09' W 001°13'0 0.0
2019-Aug-23 19:28N 46°09' W 001°13'0 0.0
2019-Aug-23 18:58N 46°09' W 001°13'0 0.0
2019-Aug-23 18:28N 46°09' W 001°13'0 0.0
2019-Aug-23 17:58N 46°09' W 001°13'0 0.0
2019-Aug-23 17:28N 46°09' W 001°13'0 0.0
2019-Aug-23 16:58N 46°09' W 001°13'0 0.0
2019-Aug-23 16:28N 46°09' W 001°13'0 0.0
2019-Aug-23 15:58N 46°09' W 001°13'0 0.0
2019-Aug-23 15:28N 46°09' W 001°13'0 0.0
2019-Aug-23 14:58N 46°09' W 001°13'0 0.0
2019-Aug-23 14:28N 46°09' W 001°13'0 0.0
2019-Aug-23 13:58N 46°09' W 001°13'0 0.0
2019-Aug-23 13:28N 46°09' W 001°13'0 0.0
2019-Aug-23 12:58N 46°09' W 001°13'0 0.0
2019-Aug-23 12:28N 46°09' W 001°13'0 0.0
2019-Aug-23 11:58N 46°09' W 001°13'0 0.0
2019-Aug-23 11:28N 46°09' W 001°13'0 0.0
2019-Aug-23 10:58N 46°09' W 001°13'0 0.0
2019-Aug-23 10:28N 46°09' W 001°13'0 0.0
2019-Aug-23 09:58N 46°09' W 001°13'0 0.0
2019-Aug-23 09:28N 46°09' W 001°13'0 0.0
2019-Aug-23 08:58N 46°09' W 001°13'0 0.0
2019-Aug-23 08:28N 46°09' W 001°13'0 0.0
2019-Aug-23 07:58N 46°09' W 001°13'0 0.0
2019-Aug-23 07:28N 46°09' W 001°13'0 0.0
2019-Aug-23 06:58N 46°09' W 001°13'0 0.0
2019-Aug-23 06:28N 46°09' W 001°13'0 0.0
2019-Aug-23 05:58N 46°09' W 001°13'0 0.0
2019-Aug-23 05:28N 46°09' W 001°13'0 0.0
2019-Aug-23 04:58N 46°09' W 001°13'0 0.0
2019-Aug-23 04:28N 46°09' W 001°13'0 0.0
2019-Aug-23 03:58N 46°09' W 001°13'0 0.0
2019-Aug-23 03:28N 46°09' W 001°13'0 0.0
2019-Aug-23 02:58N 46°09' W 001°13'0 0.0
2019-Aug-23 02:28N 46°09' W 001°13'0 0.0
2019-Aug-23 01:58N 46°09' W 001°13'0 0.0
2019-Aug-23 01:28N 46°09' W 001°13'0 0.0
2019-Aug-23 00:58N 46°09' W 001°13'0 0.0
2019-Aug-23 00:28N 46°09' W 001°13'0 0.0
2019-Aug-22 23:58N 46°09' W 001°13'0 0.0
2019-Aug-22 23:28N 46°09' W 001°13'0 0.0
2019-Aug-22 22:58N 46°09' W 001°13'0 0.0
2019-Aug-22 22:28N 46°09' W 001°13'0 0.0
2019-Aug-22 21:58N 46°09' W 001°13'0 0.0
2019-Aug-22 21:28N 46°09' W 001°13'0 0.0
2019-Aug-22 20:58N 46°09' W 001°13'0 0.0
2019-Aug-22 20:28N 46°09' W 001°13'0 0.0
2019-Aug-22 19:58N 46°09' W 001°13'0 0.0
2019-Aug-22 19:28N 46°09' W 001°13'0 0.0
2019-Aug-22 18:58N 46°09' W 001°13'0 0.0
2019-Aug-22 18:28N 46°09' W 001°13'0 0.0
2019-Aug-22 17:58N 46°09' W 001°13'0 0.0
2019-Aug-22 17:28N 46°09' W 001°13'0 0.0
2019-Aug-22 16:58N 46°09' W 001°13'0 0.0
2019-Aug-22 16:28N 46°09' W 001°13'0 0.0
2019-Aug-22 15:58N 46°09' W 001°13'0 0.0
2019-Aug-22 15:28N 46°09' W 001°13'0 0.0
2019-Aug-22 14:58N 46°09' W 001°13'0 0.0
2019-Aug-22 14:28N 46°09' W 001°13'0 0.0
2019-Aug-22 13:58N 46°09' W 001°13'0 0.0
2019-Aug-22 13:28N 46°09' W 001°13'0 0.0
2019-Aug-22 12:58N 46°09' W 001°13'0 0.1
2019-Aug-22 12:28N 46°09' W 001°13'0 0.6
2019-Aug-22 12:00N 46°09' W 001°14'3 6.7
2019-Aug-22 11:30N 46°07' W 001°17'5 9.1
2019-Aug-22 11:00N 46°07' W 001°24'5 9.3
2019-Aug-22 10:30N 46°08' W 001°30'5 9.7
2019-Aug-22 10:00N 46°11' W 001°36'510.1
2019-Aug-22 09:30N 46°14' W 001°41'510.3
2019-Aug-22 09:00N 46°18' W 001°47'510.3
2019-Aug-22 08:30N 46°21' W 001°53'510.3
2019-Aug-22 08:00N 46°24' W 001°59'510.3
2019-Aug-22 07:30N 46°28' W 002°04'510.4
2019-Aug-22 07:00N 46°31' W 002°10'510.5
2019-Aug-22 06:30N 46°34' W 002°16'510.8
2019-Aug-22 06:00N 46°38' W 002°22'611.1
2019-Aug-22 05:30N 46°41' W 002°28'510.7
2019-Aug-22 05:00N 46°45' W 002°34'510.4
2019-Aug-22 04:30N 46°48' W 002°40'510.4
2019-Aug-22 04:00N 46°51' W 002°46'510.4
2019-Aug-22 03:30N 46°55' W 002°52'510.3
2019-Aug-22 03:00N 46°58' W 002°58'510.4
2019-Aug-22 02:30N 47°01' W 003°03'510.6
2019-Aug-22 02:00N 47°05' W 003°09'510.3
2019-Aug-22 01:30N 47°08' W 003°15'510.2
2019-Aug-22 01:00N 47°11' W 003°21'510.1
2019-Aug-22 00:30N 47°15' W 003°27'510.3
2019-Aug-22 00:00N 47°18' W 003°33'510.3
2019-Aug-21 23:30N 47°21' W 003°39'510.0
2019-Aug-21 23:00N 47°24' W 003°44'510.0
2019-Aug-21 22:30N 47°27' W 003°50'510.4
2019-Aug-21 22:00N 47°31' W 003°56'710.3
2019-Aug-21 21:18N 47°35' W 004°04'1210.7
2019-Aug-21 20:13N 47°43' W 004°17'410.7
2019-Aug-21 19:53N 47°45' W 004°21'410.6
2019-Aug-21 19:30N 47°48' W 004°26'510.5
2019-Aug-21 19:00N 47°52' W 004°31'510.4
2019-Aug-21 18:30N 47°55' W 004°36'510.4
2019-Aug-21 18:00N 47°59' W 004°41'5 9.3
2019-Aug-21 17:31N 48°03' W 004°46'4 8.7
2019-Aug-21 17:00N 48°07' W 004°46'510.2
2019-Aug-21 16:30N 48°12' W 004°45'510.1
2019-Aug-21 16:00N 48°17' W 004°46'4 8.3
2019-Aug-21 15:30N 48°21' W 004°49'4 7.8
2019-Aug-21 15:00N 48°25' W 004°49'5 9.3
2019-Aug-21 14:30N 48°29' W 004°50'5 9.6
2019-Aug-21 14:00N 48°34' W 004°48'510.8
2019-Aug-21 13:30N 48°38' W 004°42'612.0
2019-Aug-21 13:00N 48°41' W 004°34'612.2
2019-Aug-21 12:30N 48°43' W 004°26'45 9.9
2019-Aug-21 07:59N 49°02' W 003°25'6 8.0
2019-Aug-21 07:13N 49°05' W 003°16'6 8.3
2019-Aug-21 06:29N 49°08' W 003°08'6 9.1
2019-Aug-21 05:49N 49°10' W 002°59'1910.3
2019-Aug-21 03:57N 49°18' W 002°33'511.4
2019-Aug-21 03:31N 49°21' W 002°26'612.1
2019-Aug-21 03:00N 49°23' W 002°17'510.9
2019-Aug-21 02:31N 49°27' W 002°12'611.1
2019-Aug-21 02:01N 49°32' W 002°09'610.9
2019-Aug-21 01:30N 49°37' W 002°05'510.3
2019-Aug-21 01:01N 49°42' W 002°01'4 8.5
2019-Aug-21 00:30N 49°45' W 001°56'611.3
2019-Aug-21 00:00N 49°45' W 001°48'4 8.5
2019-Aug-20 23:30N 49°45' W 001°41'4 7.7
2019-Aug-20 23:01N 49°45' W 001°35'4 7.2
2019-Aug-20 22:30N 49°46' W 001°30'3 6.2
2019-Aug-20 22:00N 49°46' W 001°25'3 5.5
2019-Aug-20 21:30N 49°45' W 001°21'3 5.9
2019-Aug-20 21:00N 49°44' W 001°17'3 5.9
2019-Aug-20 20:30N 49°42' W 001°13'5 8.1
2019-Aug-20 19:56N 49°40' W 001°07'2110.5
2019-Aug-20 17:58N 49°30' W 000°39'611.5
2019-Aug-20 17:28N 49°27' W 000°31'511.5
2019-Aug-20 17:00N 49°24' W 000°24'611.3
2019-Aug-20 16:30N 49°21' W 000°17'4 7.5
2019-Aug-20 16:01N 49°18' W 000°15'1 2.1
2019-Aug-20 15:31N 49°17' W 000°15'1 1.1
2019-Aug-20 15:01N 49°16' W 000°15'0 0.0
2019-Aug-20 14:29N 49°16' W 000°15'0 0.0
2019-Aug-20 13:59N 49°16' W 000°15'0 0.0
2019-Aug-20 13:29N 49°16' W 000°15'0 0.0
2019-Aug-20 12:59N 49°16' W 000°15'0 0.0
2019-Aug-20 12:29N 49°16' W 000°15'0 0.0
2019-Aug-20 11:59N 49°16' W 000°15'0 0.0
2019-Aug-20 11:29N 49°16' W 000°15'0 0.0
2019-Aug-20 10:59N 49°16' W 000°15'0 0.0
2019-Aug-20 10:29N 49°16' W 000°15'0 0.0
2019-Aug-20 09:59N 49°16' W 000°15'0 0.0
2019-Aug-20 09:29N 49°16' W 000°15'0 0.0
2019-Aug-20 08:59N 49°16' W 000°15'0 0.0
2019-Aug-20 08:29N 49°16' W 000°15'0 0.0
2019-Aug-20 07:59N 49°16' W 000°15'0 0.0
2019-Aug-20 07:29N 49°16' W 000°15'0 0.0
2019-Aug-20 06:59N 49°16' W 000°15'0 0.0
2019-Aug-20 06:29N 49°16' W 000°15'0 0.0
2019-Aug-20 05:59N 49°16' W 000°15'0 0.0
2019-Aug-20 05:29N 49°16' W 000°15'0 0.0
2019-Aug-20 04:58N 49°16' W 000°15'0 0.0
2019-Aug-20 04:28N 49°16' W 000°15'0 0.0
2019-Aug-20 03:58N 49°16' W 000°15'0 0.0
2019-Aug-20 03:28N 49°16' W 000°15'0 0.0
2019-Aug-20 02:58N 49°16' W 000°15'0 0.0
2019-Aug-20 02:28N 49°16' W 000°15'0 0.0
2019-Aug-20 01:58N 49°16' W 000°15'0 0.0
2019-Aug-20 01:28N 49°16' W 000°15'0 0.0
2019-Aug-20 00:58N 49°16' W 000°15'0 0.0
2019-Aug-20 00:28N 49°16' W 000°15'0 0.0
2019-Aug-19 23:58N 49°16' W 000°15'0 0.0
2019-Aug-19 23:28N 49°16' W 000°15'0 0.0
2019-Aug-19 22:58N 49°16' W 000°15'0 0.0
2019-Aug-19 22:28N 49°16' W 000°15'0 0.0
2019-Aug-19 21:58N 49°16' W 000°15'0 0.0
2019-Aug-19 21:28N 49°16' W 000°15'0 0.0
2019-Aug-19 20:58N 49°16' W 000°15'0 0.0
2019-Aug-19 20:28N 49°16' W 000°15'0 0.0
2019-Aug-19 19:58N 49°16' W 000°15'0 0.0
2019-Aug-19 19:28N 49°16' W 000°15'0 0.0
2019-Aug-19 18:58N 49°16' W 000°15'0 0.0
2019-Aug-19 18:28N 49°16' W 000°15'0 0.0
2019-Aug-19 17:58N 49°16' W 000°15'0 0.0
2019-Aug-19 17:28N 49°16' W 000°15'0 0.0
2019-Aug-19 16:58N 49°16' W 000°15'0 0.0
2019-Aug-19 16:28N 49°16' W 000°15'0 0.0
2019-Aug-19 15:58N 49°16' W 000°15'0 0.0
2019-Aug-19 15:28N 49°16' W 000°15'0 0.0
2019-Aug-19 14:58N 49°16' W 000°15'0 0.0
2019-Aug-19 14:28N 49°16' W 000°15'0 0.0
2019-Aug-19 13:58N 49°16' W 000°15'0 0.0
2019-Aug-19 13:28N 49°16' W 000°15'0 0.0
2019-Aug-19 12:58N 49°16' W 000°15'0 0.0
2019-Aug-19 12:28N 49°16' W 000°15'0 0.0
2019-Aug-19 11:58N 49°16' W 000°15'0 0.0
2019-Aug-19 11:28N 49°16' W 000°15'0 0.0
2019-Aug-19 10:58N 49°16' W 000°15'0 0.0
2019-Aug-19 10:28N 49°16' W 000°15'0 0.0
2019-Aug-19 09:58N 49°16' W 000°15'0 0.0
2019-Aug-19 09:28N 49°16' W 000°15'0 0.0
2019-Aug-19 08:58N 49°16' W 000°15'0 0.0
2019-Aug-19 08:28N 49°16' W 000°15'0 0.0
2019-Aug-19 07:58N 49°16' W 000°15'0 0.0
2019-Aug-19 07:28N 49°16' W 000°15'0 0.0
2019-Aug-19 06:58N 49°16' W 000°15'0 0.0
2019-Aug-19 06:28N 49°16' W 000°15'0 0.0
2019-Aug-19 05:58N 49°16' W 000°15'0 0.0
2019-Aug-19 05:28N 49°16' W 000°15'0 0.0
2019-Aug-19 04:58N 49°16' W 000°15'0 0.0
2019-Aug-19 04:28N 49°16' W 000°15'0 0.0
2019-Aug-19 03:58N 49°16' W 000°15'0 0.0
2019-Aug-19 03:28N 49°16' W 000°15'0 0.0
2019-Aug-19 02:58N 49°16' W 000°15'0 0.0
2019-Aug-19 02:28N 49°16' W 000°15'0 0.0
2019-Aug-19 01:58N 49°16' W 000°15'0 0.0
2019-Aug-19 01:28N 49°16' W 000°15'0 0.0
2019-Aug-19 00:58N 49°16' W 000°15'0 0.0
2019-Aug-19 00:28N 49°16' W 000°15'0 0.0
2019-Aug-18 23:58N 49°16' W 000°15'0 0.0
2019-Aug-18 23:28N 49°16' W 000°15'0 0.0
2019-Aug-18 22:58N 49°16' W 000°15'0 0.0
2019-Aug-18 22:28N 49°16' W 000°15'0 0.0
2019-Aug-18 21:58N 49°16' W 000°15'0 0.0
2019-Aug-18 21:28N 49°16' W 000°15'0 0.0
2019-Aug-18 20:58N 49°16' W 000°15'0 0.0
2019-Aug-18 20:28N 49°16' W 000°15'0 0.0
2019-Aug-18 19:58N 49°16' W 000°15'0 0.0
2019-Aug-18 19:28N 49°16' W 000°15'0 0.0
2019-Aug-18 18:58N 49°16' W 000°15'0 0.0
2019-Aug-18 18:28N 49°16' W 000°15'0 0.0
2019-Aug-18 17:58N 49°16' W 000°15'0 0.0
2019-Aug-18 17:28N 49°16' W 000°15'0 0.0
2019-Aug-18 16:58N 49°16' W 000°15'0 0.0
2019-Aug-18 16:28N 49°16' W 000°15'0 0.0
2019-Aug-18 15:58N 49°16' W 000°15'0 0.0
2019-Aug-18 15:28N 49°16' W 000°15'0 0.0
2019-Aug-18 14:58N 49°16' W 000°15'0 0.0
2019-Aug-18 14:28N 49°16' W 000°15'0 0.0
2019-Aug-18 13:58N 49°16' W 000°15'0 0.0
2019-Aug-18 13:28N 49°16' W 000°15'0 0.0
2019-Aug-18 12:58N 49°16' W 000°15'0 0.0
2019-Aug-18 12:28N 49°16' W 000°15'0 0.0
2019-Aug-18 11:58N 49°16' W 000°15'0 0.0
2019-Aug-18 11:28N 49°16' W 000°15'0 0.0
2019-Aug-18 10:58N 49°16' W 000°15'0 0.0
2019-Aug-18 10:28N 49°16' W 000°15'0 0.0
2019-Aug-18 09:58N 49°16' W 000°15'0 0.0
2019-Aug-18 09:28N 49°16' W 000°15'0 0.0
2019-Aug-18 08:58N 49°16' W 000°15'0 0.0
2019-Aug-18 08:28N 49°16' W 000°15'0 0.0
2019-Aug-18 07:58N 49°16' W 000°15'0 0.0
2019-Aug-18 06:58N 49°16' W 000°15'0 0.0
2019-Aug-18 06:28N 49°16' W 000°15'0 0.0
2019-Aug-18 05:58N 49°16' W 000°15'0 0.0
2019-Aug-18 05:28N 49°16' W 000°15'0 0.0
2019-Aug-18 04:58N 49°16' W 000°15'0 0.0
2019-Aug-18 04:28N 49°16' W 000°15'0 0.0
2019-Aug-18 03:58N 49°16' W 000°15'0 0.0
2019-Aug-18 03:28N 49°16' W 000°15'0 0.0
2019-Aug-18 02:58N 49°16' W 000°15'0 0.0
2019-Aug-18 02:28N 49°16' W 000°15'0 0.0
2019-Aug-18 01:58N 49°16' W 000°15'0 0.0
2019-Aug-18 01:28N 49°16' W 000°15'0 0.0
2019-Aug-18 00:58N 49°16' W 000°15'0 0.0
2019-Aug-18 00:28N 49°16' W 000°15'0 0.0
2019-Aug-17 23:58N 49°16' W 000°15'0 0.0
2019-Aug-17 23:28N 49°16' W 000°15'0 0.0
2019-Aug-17 22:58N 49°16' W 000°15'0 0.0
2019-Aug-17 22:28N 49°16' W 000°15'0 0.0
2019-Aug-17 21:58N 49°16' W 000°15'0 0.0
2019-Aug-17 21:28N 49°16' W 000°15'0 0.0
2019-Aug-17 20:58N 49°16' W 000°15'0 0.0
2019-Aug-17 20:28N 49°16' W 000°15'0 0.0
2019-Aug-17 19:58N 49°16' W 000°15'0 0.0
2019-Aug-17 19:28N 49°16' W 000°15'0 0.0
2019-Aug-17 18:58N 49°16' W 000°15'0 0.0
2019-Aug-17 18:28N 49°16' W 000°15'0 0.0
2019-Aug-17 17:28N 49°16' W 000°15'0 0.0
2019-Aug-17 16:58N 49°16' W 000°15'0 0.0
2019-Aug-17 16:28N 49°16' W 000°15'0 0.0
2019-Aug-17 15:58N 49°16' W 000°15'0 0.0
2019-Aug-17 15:28N 49°16' W 000°15'0 0.0
2019-Aug-17 14:58N 49°16' W 000°15'0 0.0
2019-Aug-17 14:28N 49°16' W 000°15'0 0.0
2019-Aug-17 13:58N 49°16' W 000°15'0 0.0
2019-Aug-17 13:28N 49°16' W 000°15'0 0.0
2019-Aug-17 12:58N 49°16' W 000°15'0 0.0
2019-Aug-17 12:28N 49°16' W 000°15'0 0.0
2019-Aug-17 11:58N 49°16' W 000°15'0 0.0
2019-Aug-17 11:28N 49°16' W 000°15'0 0.0
2019-Aug-17 10:58N 49°16' W 000°15'0 0.0
2019-Aug-17 10:28N 49°16' W 000°15'0 0.0
2019-Aug-17 09:58N 49°16' W 000°15'0 0.0
2019-Aug-17 09:28N 49°16' W 000°15'0 0.0
2019-Aug-17 08:58N 49°16' W 000°15'0 0.0
2019-Aug-17 08:28N 49°16' W 000°15'0 0.0
2019-Aug-17 07:58N 49°16' W 000°15'0 0.0
2019-Aug-17 07:28N 49°16' W 000°15'0 0.0
2019-Aug-17 06:58N 49°16' W 000°15'0 0.0
2019-Aug-17 06:28N 49°16' W 000°15'0 0.0
2019-Aug-17 05:58N 49°16' W 000°15'0 0.0
2019-Aug-17 05:28N 49°16' W 000°15'0 0.0
2019-Aug-17 04:58N 49°16' W 000°15'0 0.0
2019-Aug-17 04:28N 49°16' W 000°15'0 0.0
2019-Aug-17 03:58N 49°16' W 000°15'0 0.0
2019-Aug-17 03:28N 49°16' W 000°15'0 0.0
2019-Aug-17 02:58N 49°16' W 000°15'0 0.0
2019-Aug-17 02:28N 49°16' W 000°15'0 0.0
2019-Aug-17 01:58N 49°16' W 000°15'0 0.0
2019-Aug-17 01:28N 49°16' W 000°15'0 0.0
2019-Aug-17 00:58N 49°16' W 000°15'0 0.0
2019-Aug-17 00:28N 49°16' W 000°15'0 0.0
2019-Aug-16 23:58N 49°16' W 000°15'0 0.0
2019-Aug-16 23:28N 49°16' W 000°15'0 0.0
2019-Aug-16 22:58N 49°16' W 000°15'0 0.0
2019-Aug-16 22:28N 49°16' W 000°15'0 0.0
2019-Aug-16 21:58N 49°16' W 000°15'0 0.0
2019-Aug-16 21:28N 49°16' W 000°15'0 0.0
2019-Aug-16 20:58N 49°16' W 000°15'0 0.0
2019-Aug-16 20:28N 49°16' W 000°15'0 0.0
2019-Aug-16 19:58N 49°16' W 000°15'0 0.0
2019-Aug-16 19:28N 49°16' W 000°15'0 0.0
2019-Aug-16 18:58N 49°16' W 000°15'0 0.0
2019-Aug-16 18:28N 49°16' W 000°15'0 0.0
2019-Aug-16 17:58N 49°16' W 000°15'0 0.0
2019-Aug-16 17:28N 49°16' W 000°15'0 0.0
2019-Aug-16 16:58N 49°16' W 000°15'0 0.0
2019-Aug-16 16:28N 49°16' W 000°15'0 0.0
2019-Aug-16 15:58N 49°16' W 000°15'0 0.0
2019-Aug-16 15:28N 49°16' W 000°15'0 0.0
2019-Aug-16 14:58N 49°16' W 000°15'0 0.0
2019-Aug-16 14:28N 49°16' W 000°15'0 0.0
2019-Aug-16 13:58N 49°16' W 000°15'0 0.0
2019-Aug-16 13:28N 49°16' W 000°15'0 0.0
2019-Aug-16 12:58N 49°16' W 000°15'0 0.0
2019-Aug-16 12:28N 49°16' W 000°15'0 0.0
2019-Aug-16 11:58N 49°16' W 000°15'0 0.0
2019-Aug-16 11:28N 49°16' W 000°15'0 0.0
2019-Aug-16 10:58N 49°16' W 000°15'0 0.0
2019-Aug-16 10:28N 49°16' W 000°15'0 0.0
2019-Aug-16 09:58N 49°16' W 000°15'0 0.0
2019-Aug-16 09:28N 49°16' W 000°15'0 0.0
2019-Aug-16 08:58N 49°16' W 000°15'0 0.0
2019-Aug-16 08:28N 49°16' W 000°15'0 0.0
2019-Aug-16 07:58N 49°16' W 000°15'0 0.0
2019-Aug-16 07:28N 49°16' W 000°15'0 0.0
2019-Aug-16 06:58N 49°16' W 000°15'0 0.0
2019-Aug-16 06:28N 49°16' W 000°15'0 0.0
2019-Aug-16 05:58N 49°16' W 000°15'0 0.0
2019-Aug-16 05:28N 49°16' W 000°15'0 0.0
2019-Aug-16 04:58N 49°16' W 000°15'0 0.0
2019-Aug-16 04:28N 49°16' W 000°15'0 0.0
2019-Aug-16 03:58N 49°16' W 000°15'0 0.0
2019-Aug-16 03:28N 49°16' W 000°15'0 0.0
2019-Aug-16 02:58N 49°16' W 000°15'0 0.0
2019-Aug-16 02:28N 49°16' W 000°15'0 0.0
2019-Aug-16 01:58N 49°16' W 000°15'0 0.0
2019-Aug-16 01:28N 49°16' W 000°15'0 0.0
2019-Aug-16 00:58N 49°16' W 000°15'0 0.0
2019-Aug-16 00:28N 49°16' W 000°15'0 0.0
2019-Aug-15 23:58N 49°16' W 000°15'0 0.0
2019-Aug-15 23:28N 49°16' W 000°15'0 0.0
2019-Aug-15 22:58N 49°16' W 000°15'0 0.0
2019-Aug-15 22:28N 49°16' W 000°15'0 0.0
2019-Aug-15 21:58N 49°16' W 000°15'0 0.0
2019-Aug-15 21:28N 49°16' W 000°15'0 0.0
2019-Aug-15 20:58N 49°16' W 000°15'0 0.0
2019-Aug-15 20:28N 49°16' W 000°15'0 0.0
2019-Aug-15 19:58N 49°16' W 000°15'0 0.0
2019-Aug-15 19:28N 49°16' W 000°15'0 0.0
2019-Aug-15 18:58N 49°16' W 000°15'0 0.0
2019-Aug-15 18:28N 49°16' W 000°15'0 0.0
2019-Aug-15 18:01N 49°16' W 000°15'0 0.0
2019-Aug-15 17:28N 49°16' W 000°15'0 0.0
2019-Aug-15 16:58N 49°16' W 000°15'0 0.0
2019-Aug-15 16:31N 49°16' W 000°15'0 0.0
2019-Aug-15 15:58N 49°16' W 000°15'0 0.0
2019-Aug-15 15:31N 49°16' W 000°15'0 0.0
2019-Aug-15 15:01N 49°16' W 000°15'0 0.0
2019-Aug-15 14:31N 49°16' W 000°15'0 0.0
2019-Aug-15 14:01N 49°16' W 000°15'0 0.0
2019-Aug-15 13:31N 49°16' W 000°15'0 0.0
2019-Aug-15 13:01N 49°16' W 000°15'0 0.0
2019-Aug-15 12:30N 49°16' W 000°15'0 0.0
2019-Aug-15 12:00N 49°16' W 000°15'0 0.0
2019-Aug-15 11:30N 49°16' W 000°15'0 0.0
2019-Aug-15 11:00N 49°16' W 000°15'0 0.0
2019-Aug-15 10:30N 49°16' W 000°15'0 0.0
2019-Aug-15 10:00N 49°16' W 000°15'0 0.0
2019-Aug-15 09:30N 49°16' W 000°15'0 0.0
2019-Aug-15 09:00N 49°16' W 000°15'0 0.0
2019-Aug-15 08:30N 49°16' W 000°15'0 0.0
2019-Aug-15 08:00N 49°16' W 000°15'0 0.0
2019-Aug-15 07:30N 49°16' W 000°15'0 0.0
2019-Aug-15 07:00N 49°16' W 000°15'0 0.0
2019-Aug-15 06:30N 49°16' W 000°15'0 0.0
2019-Aug-15 06:00N 49°16' W 000°15'0 0.0
2019-Aug-15 05:30N 49°16' W 000°15'0 0.0
2019-Aug-15 05:00N 49°16' W 000°15'0 0.0
2019-Aug-15 04:30N 49°16' W 000°15'0 0.0
2019-Aug-15 04:00N 49°16' W 000°15'0 0.0
2019-Aug-15 03:30N 49°16' W 000°15'0 0.0
2019-Aug-15 03:00N 49°16' W 000°15'0 0.0
2019-Aug-15 02:30N 49°16' W 000°15'0 0.0
2019-Aug-15 02:00N 49°16' W 000°15'0 0.0
2019-Aug-15 01:30N 49°16' W 000°15'0 0.0
2019-Aug-15 01:00N 49°16' W 000°15'0 0.0
2019-Aug-15 00:30N 49°16' W 000°15'0 0.0
2019-Aug-15 00:00N 49°16' W 000°15'0 0.0
2019-Aug-14 23:30N 49°16' W 000°15'0 0.0
2019-Aug-14 23:00N 49°16' W 000°15'0 0.0
2019-Aug-14 22:30N 49°16' W 000°15'0 0.0
2019-Aug-14 22:00N 49°16' W 000°15'0 0.0
2019-Aug-14 21:30N 49°16' W 000°15'  
Track history (hours):
 
Tides and Currents Weather Stations Pressure Air Temp Water Temp Dewpoint Dewpoint Depression Visibility Wind Speed Wind Dir Waves Ship Positions

Oceanographic research ship Thalia (France)

Detailed information on ship capabilities available from University of Delaware's Ocean Information Center.

Last reported at 2019-Aug-24 21:28 UTC. Time now 2019-Aug-24 21:55 UTC.
Position N 46°15' W 001°25'.

Length 25 m; beam 7 m.

Type: Fishing. MMSI: 227270000.

Date/timePositionNaut miles runAvg speedWind from/ knotsBaromVisibWave heightAir tempDewpointWater temp
2019-Aug-24 21:28N 46°15' W 001°25'0 0.0
2019-Aug-24 20:58N 46°15' W 001°25'0 0.0
2019-Aug-24 20:28N 46°15' W 001°25'0 0.0
2019-Aug-24 19:58N 46°15' W 001°25'0 0.0
2019-Aug-24 19:28N 46°15' W 001°25'0 0.0
2019-Aug-24 18:58N 46°15' W 001°25'0 0.0
2019-Aug-24 18:28N 46°15' W 001°25'0 0.0
2019-Aug-24 17:58N 46°15' W 001°25'0 0.0
2019-Aug-24 17:28N 46°15' W 001°25'0 0.0
2019-Aug-24 16:58N 46°15' W 001°25'0 0.0
2019-Aug-24 16:28N 46°15' W 001°25'0 0.1
2019-Aug-24 16:00N 46°15' W 001°25'2 3.5
2019-Aug-24 15:30N 46°16' W 001°27'2 3.9
2019-Aug-24 15:00N 46°17' W 001°27'1 1.8
2019-Aug-24 14:30N 46°18' W 001°28'0 0.3
2019-Aug-24 14:00N 46°18' W 001°28'1 1.7
2019-Aug-24 13:30N 46°17' W 001°29'1 1.1
2019-Aug-24 13:01N 46°18' W 001°30'1 1.5
2019-Aug-24 12:30N 46°17' W 001°30'1 2.2
2019-Aug-24 12:00N 46°18' W 001°32'4 7.8
2019-Aug-24 11:30N 46°19' W 001°26'0 0.4
2019-Aug-24 11:00N 46°19' W 001°26'1 1.5
2019-Aug-24 10:30N 46°18' W 001°26'2 3.1
2019-Aug-24 10:00N 46°18' W 001°24'1 2.1
2019-Aug-24 09:30N 46°17' W 001°23'1 2.5
2019-Aug-24 09:00N 46°17' W 001°22'1 2.4
2019-Aug-24 08:30N 46°17' W 001°23'2 3.6
2019-Aug-24 08:00N 46°15' W 001°21'1 1.3
2019-Aug-24 07:30N 46°15' W 001°22'1 1.6
2019-Aug-24 07:00N 46°15' W 001°21'1 2.4
2019-Aug-24 06:30N 46°13' W 001°21'4 7.3
2019-Aug-24 06:00N 46°12' W 001°16'3 5.9
2019-Aug-24 05:28N 46°09' W 001°13'0 0.0
2019-Aug-24 04:58N 46°09' W 001°13'0 0.0
2019-Aug-24 04:28N 46°09' W 001°13'0 0.0
2019-Aug-24 03:58N 46°09' W 001°13'0 0.0
2019-Aug-24 03:28N 46°09' W 001°13'0 0.0
2019-Aug-24 02:58N 46°09' W 001°13'0 0.0
2019-Aug-24 02:28N 46°09' W 001°13'0 0.0
2019-Aug-24 01:58N 46°09' W 001°13'0 0.0
2019-Aug-24 01:28N 46°09' W 001°13'0 0.0
2019-Aug-24 00:58N 46°09' W 001°13'0 0.0
2019-Aug-24 00:28N 46°09' W 001°13'0 0.0
2019-Aug-23 23:58N 46°09' W 001°13'0 0.0
2019-Aug-23 23:28N 46°09' W 001°13'0 0.0
2019-Aug-23 22:58N 46°09' W 001°13'0 0.0
2019-Aug-23 22:28N 46°09' W 001°13'0 0.0
2019-Aug-23 21:58N 46°09' W 001°13'0 0.0
2019-Aug-23 21:28N 46°09' W 001°13'0 0.0
2019-Aug-23 20:58N 46°09' W 001°13'0 0.0
2019-Aug-23 20:28N 46°09' W 001°13'0 0.0
2019-Aug-23 19:55N 46°09' W 001°13'0 0.0
2019-Aug-23 19:28N 46°09' W 001°13'0 0.0
2019-Aug-23 18:58N 46°09' W 001°13'0 0.0
2019-Aug-23 18:28N 46°09' W 001°13'0 0.0
2019-Aug-23 17:58N 46°09' W 001°13'0 0.0
2019-Aug-23 17:28N 46°09' W 001°13'0 0.0
2019-Aug-23 16:58N 46°09' W 001°13'0 0.0
2019-Aug-23 16:28N 46°09' W 001°13'0 0.0
2019-Aug-23 15:58N 46°09' W 001°13'0 0.0
2019-Aug-23 15:28N 46°09' W 001°13'0 0.0
2019-Aug-23 14:58N 46°09' W 001°13'0 0.0
2019-Aug-23 14:28N 46°09' W 001°13'0 0.0
2019-Aug-23 13:58N 46°09' W 001°13'0 0.0
2019-Aug-23 13:28N 46°09' W 001°13'0 0.0
2019-Aug-23 12:58N 46°09' W 001°13'0 0.0
2019-Aug-23 12:28N 46°09' W 001°13'0 0.0
2019-Aug-23 11:58N 46°09' W 001°13'0 0.0
2019-Aug-23 11:28N 46°09' W 001°13'0 0.0
2019-Aug-23 10:58N 46°09' W 001°13'0 0.0
2019-Aug-23 10:28N 46°09' W 001°13'0 0.0
2019-Aug-23 09:58N 46°09' W 001°13'0 0.0
2019-Aug-23 09:28N 46°09' W 001°13'0 0.0
2019-Aug-23 08:58N 46°09' W 001°13'0 0.0
2019-Aug-23 08:28N 46°09' W 001°13'0 0.0
2019-Aug-23 07:58N 46°09' W 001°13'0 0.0
2019-Aug-23 07:28N 46°09' W 001°13'0 0.0
2019-Aug-23 06:58N 46°09' W 001°13'0 0.0
2019-Aug-23 06:28N 46°09' W 001°13'0 0.0
2019-Aug-23 05:58N 46°09' W 001°13'0 0.0
2019-Aug-23 05:28N 46°09' W 001°13'0 0.0
2019-Aug-23 04:58N 46°09' W 001°13'0 0.0
2019-Aug-23 04:28N 46°09' W 001°13'0 0.0
2019-Aug-23 03:58N 46°09' W 001°13'0 0.0
2019-Aug-23 03:28N 46°09' W 001°13'0 0.0
2019-Aug-23 02:58N 46°09' W 001°13'0 0.0
2019-Aug-23 02:28N 46°09' W 001°13'0 0.0
2019-Aug-23 01:58N 46°09' W 001°13'0 0.0
2019-Aug-23 01:28N 46°09' W 001°13'0 0.0
2019-Aug-23 00:58N 46°09' W 001°13'0 0.0
2019-Aug-23 00:28N 46°09' W 001°13'0 0.0
2019-Aug-22 23:58N 46°09' W 001°13'0 0.0
2019-Aug-22 23:28N 46°09' W 001°13'0 0.0
2019-Aug-22 22:58N 46°09' W 001°13'0 0.0
2019-Aug-22 22:28N 46°09' W 001°13'0 0.0
2019-Aug-22 21:58N 46°09' W 001°13'0 0.0
2019-Aug-22 21:28N 46°09' W 001°13'0 0.0
2019-Aug-22 20:58N 46°09' W 001°13'0 0.0
2019-Aug-22 20:28N 46°09' W 001°13'0 0.0
2019-Aug-22 19:58N 46°09' W 001°13'0 0.0
2019-Aug-22 19:28N 46°09' W 001°13'0 0.0
2019-Aug-22 18:58N 46°09' W 001°13'0 0.0
2019-Aug-22 18:28N 46°09' W 001°13'0 0.0
2019-Aug-22 17:58N 46°09' W 001°13'0 0.0
2019-Aug-22 17:28N 46°09' W 001°13'0 0.0
2019-Aug-22 16:58N 46°09' W 001°13'0 0.0
2019-Aug-22 16:28N 46°09' W 001°13'0 0.0
2019-Aug-22 15:58N 46°09' W 001°13'0 0.0
2019-Aug-22 15:28N 46°09' W 001°13'0 0.0
2019-Aug-22 14:58N 46°09' W 001°13'0 0.0
2019-Aug-22 14:28N 46°09' W 001°13'0 0.0
2019-Aug-22 13:58N 46°09' W 001°13'0 0.0
2019-Aug-22 13:28N 46°09' W 001°13'0 0.0
2019-Aug-22 12:58N 46°09' W 001°13'0 0.1
2019-Aug-22 12:28N 46°09' W 001°13'0 0.6
2019-Aug-22 12:00N 46°09' W 001°14'3 6.7
2019-Aug-22 11:30N 46°07' W 001°17'5 9.1
2019-Aug-22 11:00N 46°07' W 001°24'5 9.3
2019-Aug-22 10:30N 46°08' W 001°30'5 9.7
2019-Aug-22 10:00N 46°11' W 001°36'510.1
2019-Aug-22 09:30N 46°14' W 001°41'510.3
2019-Aug-22 09:00N 46°18' W 001°47'510.3
2019-Aug-22 08:30N 46°21' W 001°53'510.3
2019-Aug-22 08:00N 46°24' W 001°59'510.3
2019-Aug-22 07:30N 46°28' W 002°04'510.4
2019-Aug-22 07:00N 46°31' W 002°10'510.5
2019-Aug-22 06:30N 46°34' W 002°16'510.8
2019-Aug-22 06:00N 46°38' W 002°22'611.1
2019-Aug-22 05:30N 46°41' W 002°28'510.7
2019-Aug-22 05:00N 46°45' W 002°34'510.4
2019-Aug-22 04:30N 46°48' W 002°40'510.4
2019-Aug-22 04:00N 46°51' W 002°46'510.4
2019-Aug-22 03:30N 46°55' W 002°52'510.3
2019-Aug-22 03:00N 46°58' W 002°58'510.4
2019-Aug-22 02:30N 47°01' W 003°03'510.6
2019-Aug-22 02:00N 47°05' W 003°09'510.3
2019-Aug-22 01:30N 47°08' W 003°15'510.2
2019-Aug-22 01:00N 47°11' W 003°21'510.1
2019-Aug-22 00:30N 47°15' W 003°27'510.3
2019-Aug-22 00:00N 47°18' W 003°33'510.3
2019-Aug-21 23:30N 47°21' W 003°39'510.0
2019-Aug-21 23:00N 47°24' W 003°44'510.0
2019-Aug-21 22:30N 47°27' W 003°50'510.4
2019-Aug-21 22:00N 47°31' W 003°56'710.3
2019-Aug-21 21:18N 47°35' W 004°04'1210.7
2019-Aug-21 20:13N 47°43' W 004°17'410.7
2019-Aug-21 19:53N 47°45' W 004°21'410.6
2019-Aug-21 19:30N 47°48' W 004°26'510.5
2019-Aug-21 19:00N 47°52' W 004°31'510.4
2019-Aug-21 18:30N 47°55' W 004°36'510.4
2019-Aug-21 18:00N 47°59' W 004°41'5 9.3
2019-Aug-21 17:31N 48°03' W 004°46'4 8.7
2019-Aug-21 17:00N 48°07' W 004°46'510.2
2019-Aug-21 16:30N 48°12' W 004°45'510.1
2019-Aug-21 16:00N 48°17' W 004°46'4 8.3
2019-Aug-21 15:30N 48°21' W 004°49'4 7.8
2019-Aug-21 15:00N 48°25' W 004°49'5 9.3
2019-Aug-21 14:30N 48°29' W 004°50'5 9.6
2019-Aug-21 14:00N 48°34' W 004°48'510.8
2019-Aug-21 13:30N 48°38' W 004°42'612.0
2019-Aug-21 13:00N 48°41' W 004°34'612.2
2019-Aug-21 12:30N 48°43' W 004°26'45 9.9
2019-Aug-21 07:59N 49°02' W 003°25'6 8.0
2019-Aug-21 07:13N 49°05' W 003°16'6 8.3
2019-Aug-21 06:29N 49°08' W 003°08'6 9.1
2019-Aug-21 05:49N 49°10' W 002°59'1910.3
2019-Aug-21 03:57N 49°18' W 002°33'511.4
2019-Aug-21 03:31N 49°21' W 002°26'612.1
2019-Aug-21 03:00N 49°23' W 002°17'510.9
2019-Aug-21 02:31N 49°27' W 002°12'611.1
2019-Aug-21 02:01N 49°32' W 002°09'610.9
2019-Aug-21 01:30N 49°37' W 002°05'510.3
2019-Aug-21 01:01N 49°42' W 002°01'4 8.5
2019-Aug-21 00:30N 49°45' W 001°56'611.3
2019-Aug-21 00:00N 49°45' W 001°48'4 8.5
2019-Aug-20 23:30N 49°45' W 001°41'4 7.7
2019-Aug-20 23:01N 49°45' W 001°35'4 7.2
2019-Aug-20 22:30N 49°46' W 001°30'3 6.2
2019-Aug-20 22:00N 49°46' W 001°25'3 5.5
2019-Aug-20 21:30N 49°45' W 001°21'3 5.9
2019-Aug-20 21:00N 49°44' W 001°17'3 5.9
2019-Aug-20 20:30N 49°42' W 001°13'5 8.1
2019-Aug-20 19:56N 49°40' W 001°07'2110.5
2019-Aug-20 17:58N 49°30' W 000°39'611.5
2019-Aug-20 17:28N 49°27' W 000°31'511.5
2019-Aug-20 17:00N 49°24' W 000°24'611.3
2019-Aug-20 16:30N 49°21' W 000°17'4 7.5
2019-Aug-20 16:01N 49°18' W 000°15'1 2.1
2019-Aug-20 15:31N 49°17' W 000°15'1 1.1
2019-Aug-20 15:01N 49°16' W 000°15'0 0.0
2019-Aug-20 14:29N 49°16' W 000°15'0 0.0
2019-Aug-20 13:59N 49°16' W 000°15'0 0.0
2019-Aug-20 13:29N 49°16' W 000°15'0 0.0
2019-Aug-20 12:59N 49°16' W 000°15'0 0.0
2019-Aug-20 12:29N 49°16' W 000°15'0 0.0
2019-Aug-20 11:59N 49°16' W 000°15'0 0.0
2019-Aug-20 11:29N 49°16' W 000°15'0 0.0
2019-Aug-20 10:59N 49°16' W 000°15'0 0.0
2019-Aug-20 10:29N 49°16' W 000°15'0 0.0
2019-Aug-20 09:59N 49°16' W 000°15'0 0.0
2019-Aug-20 09:29N 49°16' W 000°15'0 0.0
2019-Aug-20 08:59N 49°16' W 000°15'0 0.0
2019-Aug-20 08:29N 49°16' W 000°15'0 0.0
2019-Aug-20 07:59N 49°16' W 000°15'0 0.0
2019-Aug-20 07:29N 49°16' W 000°15'0 0.0
2019-Aug-20 06:59N 49°16' W 000°15'0 0.0
2019-Aug-20 06:29N 49°16' W 000°15'0 0.0
2019-Aug-20 05:59N 49°16' W 000°15'0 0.0
2019-Aug-20 05:29N 49°16' W 000°15'0 0.0
2019-Aug-20 04:58N 49°16' W 000°15'0 0.0
2019-Aug-20 04:28N 49°16' W 000°15'0 0.0
2019-Aug-20 03:58N 49°16' W 000°15'0 0.0
2019-Aug-20 03:28N 49°16' W 000°15'0 0.0
2019-Aug-20 02:58N 49°16' W 000°15'0 0.0
2019-Aug-20 02:28N 49°16' W 000°15'0 0.0
2019-Aug-20 01:58N 49°16' W 000°15'0 0.0
2019-Aug-20 01:28N 49°16' W 000°15'0 0.0
2019-Aug-20 00:58N 49°16' W 000°15'0 0.0
2019-Aug-20 00:28N 49°16' W 000°15'0 0.0
2019-Aug-19 23:58N 49°16' W 000°15'0 0.0
2019-Aug-19 23:28N 49°16' W 000°15'0 0.0
2019-Aug-19 22:58N 49°16' W 000°15'0 0.0
2019-Aug-19 22:28N 49°16' W 000°15'0 0.0
2019-Aug-19 21:58N 49°16' W 000°15'0 0.0
2019-Aug-19 21:28N 49°16' W 000°15'0 0.0
2019-Aug-19 20:58N 49°16' W 000°15'0 0.0
2019-Aug-19 20:28N 49°16' W 000°15'0 0.0
2019-Aug-19 19:58N 49°16' W 000°15'0 0.0
2019-Aug-19 19:28N 49°16' W 000°15'0 0.0
2019-Aug-19 18:58N 49°16' W 000°15'0 0.0
2019-Aug-19 18:28N 49°16' W 000°15'0 0.0
2019-Aug-19 17:58N 49°16' W 000°15'0 0.0
2019-Aug-19 17:28N 49°16' W 000°15'0 0.0
2019-Aug-19 16:58N 49°16' W 000°15'0 0.0
2019-Aug-19 16:28N 49°16' W 000°15'0 0.0
2019-Aug-19 15:58N 49°16' W 000°15'0 0.0
2019-Aug-19 15:28N 49°16' W 000°15'0 0.0
2019-Aug-19 14:58N 49°16' W 000°15'0 0.0
2019-Aug-19 14:28N 49°16' W 000°15'0 0.0
2019-Aug-19 13:58N 49°16' W 000°15'0 0.0
2019-Aug-19 13:28N 49°16' W 000°15'0 0.0
2019-Aug-19 12:58N 49°16' W 000°15'0 0.0
2019-Aug-19 12:28N 49°16' W 000°15'0 0.0
2019-Aug-19 11:58N 49°16' W 000°15'0 0.0
2019-Aug-19 11:28N 49°16' W 000°15'0 0.0
2019-Aug-19 10:58N 49°16' W 000°15'0 0.0
2019-Aug-19 10:28N 49°16' W 000°15'0 0.0
2019-Aug-19 09:58N 49°16' W 000°15'0 0.0
2019-Aug-19 09:28N 49°16' W 000°15'0 0.0
2019-Aug-19 08:58N 49°16' W 000°15'0 0.0
2019-Aug-19 08:28N 49°16' W 000°15'0 0.0
2019-Aug-19 07:58N 49°16' W 000°15'0 0.0
2019-Aug-19 07:28N 49°16' W 000°15'0 0.0
2019-Aug-19 06:58N 49°16' W 000°15'0 0.0
2019-Aug-19 06:28N 49°16' W 000°15'0 0.0
2019-Aug-19 05:58N 49°16' W 000°15'0 0.0
2019-Aug-19 05:28N 49°16' W 000°15'0 0.0
2019-Aug-19 04:58N 49°16' W 000°15'0 0.0
2019-Aug-19 04:28N 49°16' W 000°15'0 0.0
2019-Aug-19 03:58N 49°16' W 000°15'0 0.0
2019-Aug-19 03:28N 49°16' W 000°15'0 0.0
2019-Aug-19 02:58N 49°16' W 000°15'0 0.0
2019-Aug-19 02:28N 49°16' W 000°15'0 0.0
2019-Aug-19 01:58N 49°16' W 000°15'0 0.0
2019-Aug-19 01:28N 49°16' W 000°15'0 0.0
2019-Aug-19 00:58N 49°16' W 000°15'0 0.0
2019-Aug-19 00:28N 49°16' W 000°15'0 0.0
2019-Aug-18 23:58N 49°16' W 000°15'0 0.0
2019-Aug-18 23:28N 49°16' W 000°15'0 0.0
2019-Aug-18 22:58N 49°16' W 000°15'0 0.0
2019-Aug-18 22:28N 49°16' W 000°15'0 0.0
2019-Aug-18 21:58N 49°16' W 000°15'0 0.0
2019-Aug-18 21:28N 49°16' W 000°15'0 0.0
2019-Aug-18 20:58N 49°16' W 000°15'0 0.0
2019-Aug-18 20:28N 49°16' W 000°15'0 0.0
2019-Aug-18 19:58N 49°16' W 000°15'0 0.0
2019-Aug-18 19:28N 49°16' W 000°15'0 0.0
2019-Aug-18 18:58N 49°16' W 000°15'0 0.0
2019-Aug-18 18:28N 49°16' W 000°15'0 0.0
2019-Aug-18 17:58N 49°16' W 000°15'0 0.0
2019-Aug-18 17:28N 49°16' W 000°15'0 0.0
2019-Aug-18 16:58N 49°16' W 000°15'0 0.0
2019-Aug-18 16:28N 49°16' W 000°15'0 0.0
2019-Aug-18 15:58N 49°16' W 000°15'0 0.0
2019-Aug-18 15:28N 49°16' W 000°15'0 0.0
2019-Aug-18 14:58N 49°16' W 000°15'0 0.0
2019-Aug-18 14:28N 49°16' W 000°15'0 0.0
2019-Aug-18 13:58N 49°16' W 000°15'0 0.0
2019-Aug-18 13:28N 49°16' W 000°15'0 0.0
2019-Aug-18 12:58N 49°16' W 000°15'0 0.0
2019-Aug-18 12:28N 49°16' W 000°15'0 0.0
2019-Aug-18 11:58N 49°16' W 000°15'0 0.0
2019-Aug-18 11:28N 49°16' W 000°15'0 0.0
2019-Aug-18 10:58N 49°16' W 000°15'0 0.0
2019-Aug-18 10:28N 49°16' W 000°15'0 0.0
2019-Aug-18 09:58N 49°16' W 000°15'0 0.0
2019-Aug-18 09:28N 49°16' W 000°15'0 0.0
2019-Aug-18 08:58N 49°16' W 000°15'0 0.0
2019-Aug-18 08:28N 49°16' W 000°15'0 0.0
2019-Aug-18 07:58N 49°16' W 000°15'0 0.0
2019-Aug-18 06:58N 49°16' W 000°15'0 0.0
2019-Aug-18 06:28N 49°16' W 000°15'0 0.0
2019-Aug-18 05:58N 49°16' W 000°15'0 0.0
2019-Aug-18 05:28N 49°16' W 000°15'0 0.0
2019-Aug-18 04:58N 49°16' W 000°15'0 0.0
2019-Aug-18 04:28N 49°16' W 000°15'0 0.0
2019-Aug-18 03:58N 49°16' W 000°15'0 0.0
2019-Aug-18 03:28N 49°16' W 000°15'0 0.0
2019-Aug-18 02:58N 49°16' W 000°15'0 0.0
2019-Aug-18 02:28N 49°16' W 000°15'0 0.0
2019-Aug-18 01:58N 49°16' W 000°15'0 0.0
2019-Aug-18 01:28N 49°16' W 000°15'0 0.0
2019-Aug-18 00:58N 49°16' W 000°15'0 0.0
2019-Aug-18 00:28N 49°16' W 000°15'0 0.0
2019-Aug-17 23:58N 49°16' W 000°15'0 0.0
2019-Aug-17 23:28N 49°16' W 000°15'0 0.0
2019-Aug-17 22:58N 49°16' W 000°15'0 0.0
2019-Aug-17 22:28N 49°16' W 000°15'0 0.0
2019-Aug-17 21:58N 49°16' W 000°15'0 0.0
2019-Aug-17 21:28N 49°16' W 000°15'0 0.0
2019-Aug-17 20:58N 49°16' W 000°15'0 0.0
2019-Aug-17 20:28N 49°16' W 000°15'0 0.0
2019-Aug-17 19:58N 49°16' W 000°15'0 0.0
2019-Aug-17 19:28N 49°16' W 000°15'0 0.0
2019-Aug-17 18:58N 49°16' W 000°15'0 0.0
2019-Aug-17 18:28N 49°16' W 000°15'0 0.0
2019-Aug-17 17:28N 49°16' W 000°15'0 0.0
2019-Aug-17 16:58N 49°16' W 000°15'0 0.0
2019-Aug-17 16:28N 49°16' W 000°15'0 0.0
2019-Aug-17 15:58N 49°16' W 000°15'0 0.0
2019-Aug-17 15:28N 49°16' W 000°15'0 0.0
2019-Aug-17 14:58N 49°16' W 000°15'0 0.0
2019-Aug-17 14:28N 49°16' W 000°15'0 0.0
2019-Aug-17 13:58N 49°16' W 000°15'0 0.0
2019-Aug-17 13:28N 49°16' W 000°15'0 0.0
2019-Aug-17 12:58N 49°16' W 000°15'0 0.0
2019-Aug-17 12:28N 49°16' W 000°15'0 0.0
2019-Aug-17 11:58N 49°16' W 000°15'0 0.0
2019-Aug-17 11:28N 49°16' W 000°15'0 0.0
2019-Aug-17 10:58N 49°16' W 000°15'0 0.0
2019-Aug-17 10:28N 49°16' W 000°15'0 0.0
2019-Aug-17 09:58N 49°16' W 000°15'0 0.0
2019-Aug-17 09:28N 49°16' W 000°15'0 0.0
2019-Aug-17 08:58N 49°16' W 000°15'0 0.0
2019-Aug-17 08:28N 49°16' W 000°15'0 0.0
2019-Aug-17 07:58N 49°16' W 000°15'0 0.0
2019-Aug-17 07:28N 49°16' W 000°15'0 0.0
2019-Aug-17 06:58N 49°16' W 000°15'0 0.0
2019-Aug-17 06:28N 49°16' W 000°15'0 0.0
2019-Aug-17 05:58N 49°16' W 000°15'0 0.0
2019-Aug-17 05:28N 49°16' W 000°15'0 0.0
2019-Aug-17 04:58N 49°16' W 000°15'0 0.0
2019-Aug-17 04:28N 49°16' W 000°15'0 0.0
2019-Aug-17 03:58N 49°16' W 000°15'0 0.0
2019-Aug-17 03:28N 49°16' W 000°15'0 0.0
2019-Aug-17 02:58N 49°16' W 000°15'0 0.0
2019-Aug-17 02:28N 49°16' W 000°15'0 0.0
2019-Aug-17 01:58N 49°16' W 000°15'0 0.0
2019-Aug-17 01:28N 49°16' W 000°15'0 0.0
2019-Aug-17 00:58N 49°16' W 000°15'0 0.0
2019-Aug-17 00:28N 49°16' W 000°15'0 0.0
2019-Aug-16 23:58N 49°16' W 000°15'0 0.0
2019-Aug-16 23:28N 49°16' W 000°15'0 0.0
2019-Aug-16 22:58N 49°16' W 000°15'0 0.0
2019-Aug-16 22:28N 49°16' W 000°15'0 0.0
2019-Aug-16 21:58N 49°16' W 000°15'0 0.0
2019-Aug-16 21:28N 49°16' W 000°15'0 0.0
2019-Aug-16 20:58N 49°16' W 000°15'0 0.0
2019-Aug-16 20:28N 49°16' W 000°15'0 0.0
2019-Aug-16 19:58N 49°16' W 000°15'0 0.0
2019-Aug-16 19:28N 49°16' W 000°15'0 0.0
2019-Aug-16 18:58N 49°16' W 000°15'0 0.0
2019-Aug-16 18:28N 49°16' W 000°15'0 0.0
2019-Aug-16 17:58N 49°16' W 000°15'0 0.0
2019-Aug-16 17:28N 49°16' W 000°15'0 0.0
2019-Aug-16 16:58N 49°16' W 000°15'0 0.0
2019-Aug-16 16:28N 49°16' W 000°15'0 0.0
2019-Aug-16 15:58N 49°16' W 000°15'0 0.0
2019-Aug-16 15:28N 49°16' W 000°15'0 0.0
2019-Aug-16 14:58N 49°16' W 000°15'0 0.0
2019-Aug-16 14:28N 49°16' W 000°15'0 0.0
2019-Aug-16 13:58N 49°16' W 000°15'0 0.0
2019-Aug-16 13:28N 49°16' W 000°15'0 0.0
2019-Aug-16 12:58N 49°16' W 000°15'0 0.0
2019-Aug-16 12:28N 49°16' W 000°15'0 0.0
2019-Aug-16 11:58N 49°16' W 000°15'0 0.0
2019-Aug-16 11:28N 49°16' W 000°15'0 0.0
2019-Aug-16 10:58N 49°16' W 000°15'0 0.0
2019-Aug-16 10:28N 49°16' W 000°15'0 0.0
2019-Aug-16 09:58N 49°16' W 000°15'0 0.0
2019-Aug-16 09:28N 49°16' W 000°15'0 0.0
2019-Aug-16 08:58N 49°16' W 000°15'0 0.0
2019-Aug-16 08:28N 49°16' W 000°15'0 0.0
2019-Aug-16 07:58N 49°16' W 000°15'0 0.0
2019-Aug-16 07:28N 49°16' W 000°15'0 0.0
2019-Aug-16 06:58N 49°16' W 000°15'0 0.0
2019-Aug-16 06:28N 49°16' W 000°15'0 0.0
2019-Aug-16 05:58N 49°16' W 000°15'0 0.0
2019-Aug-16 05:28N 49°16' W 000°15'0 0.0
2019-Aug-16 04:58N 49°16' W 000°15'0 0.0
2019-Aug-16 04:28N 49°16' W 000°15'0 0.0
2019-Aug-16 03:58N 49°16' W 000°15'0 0.0
2019-Aug-16 03:28N 49°16' W 000°15'0 0.0
2019-Aug-16 02:58N 49°16' W 000°15'0 0.0
2019-Aug-16 02:28N 49°16' W 000°15'0 0.0
2019-Aug-16 01:58N 49°16' W 000°15'0 0.0
2019-Aug-16 01:28N 49°16' W 000°15'0 0.0
2019-Aug-16 00:58N 49°16' W 000°15'0 0.0
2019-Aug-16 00:28N 49°16' W 000°15'0 0.0
2019-Aug-15 23:58N 49°16' W 000°15'0 0.0
2019-Aug-15 23:28N 49°16' W 000°15'0 0.0
2019-Aug-15 22:58N 49°16' W 000°15'0 0.0
2019-Aug-15 22:28N 49°16' W 000°15'0 0.0
2019-Aug-15 21:58N 49°16' W 000°15'0 0.0
2019-Aug-15 21:28N 49°16' W 000°15'0 0.0
2019-Aug-15 20:58N 49°16' W 000°15'0 0.0
2019-Aug-15 20:28N 49°16' W 000°15'0 0.0
2019-Aug-15 19:58N 49°16' W 000°15'0 0.0
2019-Aug-15 19:28N 49°16' W 000°15'0 0.0
2019-Aug-15 18:58N 49°16' W 000°15'0 0.0
2019-Aug-15 18:28N 49°16' W 000°15'0 0.0
2019-Aug-15 18:01N 49°16' W 000°15'0 0.0
2019-Aug-15 17:28N 49°16' W 000°15'0 0.0
2019-Aug-15 16:58N 49°16' W 000°15'0 0.0
2019-Aug-15 16:31N 49°16' W 000°15'0 0.0
2019-Aug-15 15:58N 49°16' W 000°15'0 0.0
2019-Aug-15 15:31N 49°16' W 000°15'0 0.0
2019-Aug-15 15:01N 49°16' W 000°15'0 0.0
2019-Aug-15 14:31N 49°16' W 000°15'0 0.0
2019-Aug-15 14:01N 49°16' W 000°15'0 0.0
2019-Aug-15 13:31N 49°16' W 000°15'0 0.0
2019-Aug-15 13:01N 49°16' W 000°15'0 0.0
2019-Aug-15 12:30N 49°16' W 000°15'0 0.0
2019-Aug-15 12:00N 49°16' W 000°15'0 0.0
2019-Aug-15 11:30N 49°16' W 000°15'0 0.0
2019-Aug-15 11:00N 49°16' W 000°15'0 0.0
2019-Aug-15 10:30N 49°16' W 000°15'0 0.0
2019-Aug-15 10:00N 49°16' W 000°15'0 0.0
2019-Aug-15 09:30N 49°16' W 000°15'0 0.0
2019-Aug-15 09:00N 49°16' W 000°15'0 0.0
2019-Aug-15 08:30N 49°16' W 000°15'0 0.0
2019-Aug-15 08:00N 49°16' W 000°15'0 0.0
2019-Aug-15 07:30N 49°16' W 000°15'0 0.0
2019-Aug-15 07:00N 49°16' W 000°15'0 0.0
2019-Aug-15 06:30N 49°16' W 000°15'0 0.0
2019-Aug-15 06:00N 49°16' W 000°15'0 0.0
2019-Aug-15 05:30N 49°16' W 000°15'0 0.0
2019-Aug-15 05:00N 49°16' W 000°15'0 0.0
2019-Aug-15 04:30N 49°16' W 000°15'0 0.0
2019-Aug-15 04:00N 49°16' W 000°15'0 0.0
2019-Aug-15 03:30N 49°16' W 000°15'0 0.0
2019-Aug-15 03:00N 49°16' W 000°15'0 0.0
2019-Aug-15 02:30N 49°16' W 000°15'0 0.0
2019-Aug-15 02:00N 49°16' W 000°15'0 0.0
2019-Aug-15 01:30N 49°16' W 000°15'0 0.0
2019-Aug-15 01:00N 49°16' W 000°15'0 0.0
2019-Aug-15 00:30N 49°16' W 000°15'0 0.0
2019-Aug-15 00:00N 49°16' W 000°15'0 0.0
2019-Aug-14 23:30N 49°16' W 000°15'0 0.0
2019-Aug-14 23:00N 49°16' W 000°15'0 0.0
2019-Aug-14 22:30N 49°16' W 000°15'0 0.0
2019-Aug-14 22:00N 49°16' W 000°15'0 0.0
2019-Aug-14 21:30N 49°16' W 000°15'  

Dump ship's entire track history